createdAt,value
2024-05-09T00:00:39.086Z,63.01
2024-05-09T00:03:08.613Z,63.14
2024-05-09T00:05:36.821Z,63.95
2024-05-09T00:08:04.326Z,64.51
2024-05-09T00:10:36.374Z,66.13
2024-05-09T00:13:05.877Z,65.08
2024-05-09T00:15:33.609Z,65.51
2024-05-09T00:18:00.679Z,65.04
2024-05-09T00:20:35.974Z,65.60
2024-05-09T00:23:07.571Z,65.83
2024-05-09T00:25:34.866Z,65.50
2024-05-09T00:28:01.793Z,66.78
2024-05-09T00:30:34.048Z,65.91
2024-05-09T00:33:04.389Z,65.21
2024-05-09T00:35:31.782Z,65.91
2024-05-09T00:37:58.427Z,66.08
2024-05-09T00:40:35.324Z,66.96
2024-05-09T00:43:06.449Z,66.20
2024-05-09T00:45:34.407Z,66.62
2024-05-09T00:48:05.093Z,66.82
2024-05-09T00:50:36.842Z,66.83
2024-05-09T00:53:06.748Z,66.76
2024-05-09T00:55:37.262Z,67.42
2024-05-09T00:58:06.018Z,66.81
2024-05-09T01:00:38.879Z,67.10
2024-05-09T01:03:09.044Z,66.92
2024-05-09T01:05:39.075Z,68.09
2024-05-09T01:08:06.594Z,68.64
2024-05-09T01:10:36.608Z,67.78
2024-05-09T01:13:04.741Z,67.84
2024-05-09T01:15:31.523Z,68.13
2024-05-09T01:18:00.786Z,67.10
2024-05-09T01:20:37.239Z,67.16
2024-05-09T01:23:09.724Z,67.90
2024-05-09T01:25:36.689Z,68.33
2024-05-09T01:28:03.784Z,68.57
2024-05-09T01:30:34.979Z,70.48
2024-05-09T01:33:04.655Z,69.39
2024-05-09T01:35:31.817Z,68.83
2024-05-09T01:37:58.568Z,68.47
2024-05-09T01:40:33.921Z,70.01
2024-05-09T01:43:04.961Z,70.07
2024-05-09T01:45:31.511Z,69.65
2024-05-09T01:47:58.684Z,70.10
2024-05-09T01:50:36.718Z,70.21
2024-05-09T01:53:07.021Z,70.40
2024-05-09T01:55:33.708Z,70.15
2024-05-09T01:58:00.326Z,70.05
2024-05-09T02:00:37.693Z,69.56
2024-05-09T02:03:12.059Z,69.28
2024-05-09T02:05:42.315Z,69.96
2024-05-09T02:08:13.902Z,69.75
2024-05-09T02:10:40.613Z,70.06
2024-05-09T02:13:09.835Z,70.05
2024-05-09T02:15:36.436Z,70.52
2024-05-09T02:18:03.254Z,70.88
2024-05-09T02:20:35.918Z,70.41
2024-05-09T02:23:05.281Z,70.35
2024-05-09T02:25:32.586Z,70.72
2024-05-09T02:28:02.479Z,70.40
2024-05-09T02:30:38.345Z,70.72
2024-05-09T02:46:43.351Z,80.28
2024-05-09T02:49:11.973Z,78.60
2024-05-09T02:51:38.806Z,79.20
2024-05-09T02:54:07.706Z,77.33
2024-05-09T02:56:34.409Z,76.16
2024-05-09T02:59:01.160Z,76.14
2024-05-09T03:01:27.895Z,75.72
2024-05-09T03:03:54.629Z,74.21
2024-05-09T03:06:21.435Z,75.21
2024-05-09T03:08:48.121Z,74.59
2024-05-09T03:11:22.664Z,75.67
2024-05-09T03:13:53.188Z,75.30
2024-05-09T03:16:26.302Z,75.32
2024-05-09T03:18:54.760Z,75.20
2024-05-09T03:21:21.976Z,74.66
2024-05-09T03:23:48.719Z,73.74
2024-05-09T03:26:16.246Z,74.65
2024-05-09T03:28:43.741Z,75.25
2024-05-09T03:31:10.759Z,75.73
2024-05-09T03:33:40.828Z,76.09
2024-05-09T03:36:10.526Z,74.74
2024-05-09T03:38:38.928Z,75.08
2024-05-09T03:41:05.748Z,74.45
2024-05-09T03:43:32.754Z,74.80
2024-05-09T03:45:59.636Z,75.11
2024-05-09T03:48:26.924Z,75.68
2024-05-09T03:50:54.062Z,75.55
2024-05-09T03:53:20.982Z,75.83
2024-05-09T03:55:47.944Z,77.36
2024-05-09T03:58:16.208Z,75.42
2024-05-09T04:00:46.240Z,75.78
2024-05-09T04:03:13.650Z,76.06
2024-05-09T04:05:45.990Z,75.60
2024-05-09T04:08:18.825Z,75.95
2024-05-09T04:10:48.486Z,75.39
2024-05-09T04:13:21.587Z,75.72
2024-05-09T04:15:50.392Z,75.53
2024-05-09T04:18:18.284Z,75.12
2024-05-09T04:20:48.419Z,75.50
2024-05-09T04:23:17.213Z,75.59
2024-05-09T04:25:47.805Z,76.18
2024-05-09T04:28:14.832Z,75.04
2024-05-09T04:30:42.537Z,75.26
2024-05-09T04:33:12.461Z,75.23
2024-05-09T04:35:44.582Z,75.45
2024-05-09T04:38:22.129Z,76.17
2024-05-09T04:40:51.556Z,75.92
2024-05-09T04:43:21.813Z,76.30
2024-05-09T04:45:51.824Z,75.78
2024-05-09T04:48:21.915Z,75.90
2024-05-09T04:50:49.125Z,76.50
2024-05-09T04:53:18.776Z,75.96
2024-05-09T04:55:45.859Z,76.23
2024-05-09T04:58:12.991Z,75.02
2024-05-09T05:00:41.147Z,74.54
2024-05-09T05:03:12.878Z,74.50
2024-05-09T05:05:42.087Z,74.24
2024-05-09T05:08:12.883Z,74.71
2024-05-09T05:10:47.171Z,74.67
2024-05-09T05:13:23.829Z,74.73
2024-05-09T05:15:58.461Z,75.24
2024-05-09T05:18:28.083Z,75.54
2024-05-09T05:20:56.678Z,75.48
2024-05-09T05:23:24.610Z,75.32
2024-05-09T05:28:38.867Z,74.72
2024-05-09T05:31:05.676Z,74.78
2024-05-09T05:33:32.415Z,73.85
2024-05-09T05:35:59.425Z,74.22
2024-05-09T05:38:28.327Z,72.52
2024-05-09T05:40:56.040Z,71.58
2024-05-09T05:43:23.042Z,71.08
2024-05-09T05:45:49.711Z,71.02
2024-05-09T05:48:17.760Z,69.95
2024-05-09T05:50:45.324Z,70.89
2024-05-09T05:53:12.270Z,68.71
2024-05-09T05:55:40.919Z,68.83
2024-05-09T05:58:11.897Z,68.26
2024-05-09T06:00:41.702Z,68.45
2024-05-09T06:03:10.505Z,68.05
2024-05-09T06:05:40.498Z,68.69
2024-05-09T06:08:08.026Z,70.10
2024-05-09T06:10:40.022Z,69.37
2024-05-09T06:13:13.340Z,68.24
2024-05-09T06:15:56.946Z,67.67
2024-05-09T06:18:30.247Z,69.58
2024-05-09T06:21:02.193Z,69.00
2024-05-09T06:23:37.000Z,68.30
2024-05-09T06:27:07.779Z,67.55
2024-05-09T06:29:42.320Z,68.33
2024-05-09T06:32:16.075Z,66.34
2024-05-09T06:35:27.412Z,66.50
2024-05-09T06:38:07.687Z,67.27
2024-05-09T06:41:01.256Z,68.01
2024-05-09T06:43:42.301Z,68.12
2024-05-09T06:46:30.703Z,66.48
2024-05-09T06:49:08.685Z,65.44
2024-05-09T06:52:36.575Z,66.71
2024-05-09T06:55:03.530Z,65.05
2024-05-09T06:57:31.021Z,63.25
2024-05-09T07:00:00.771Z,62.80
2024-05-09T07:02:28.133Z,59.17
2024-05-09T07:04:55.096Z,60.59
2024-05-09T07:07:21.758Z,58.87
2024-05-09T07:10:21.639Z,58.51
2024-05-09T07:12:52.338Z,56.42
2024-05-09T07:15:18.954Z,57.46
2024-05-09T07:17:45.666Z,56.14
2024-05-09T07:20:19.874Z,54.28
2024-05-09T07:22:53.660Z,54.22
2024-05-09T07:25:20.245Z,50.75
2024-05-09T07:27:46.850Z,50.01
2024-05-09T07:30:19.975Z,50.81
2024-05-09T07:32:50.248Z,49.75
2024-05-09T07:35:16.941Z,49.52
2024-05-09T07:37:43.614Z,49.99
2024-05-09T07:42:38.625Z,50.93
2024-05-09T07:45:21.555Z,51.29
2024-05-09T07:49:35.268Z,49.29
2024-05-09T07:53:36.908Z,49.63
2024-05-09T07:55:56.809Z,51.71
2024-05-09T07:58:29.204Z,50.02
2024-05-09T08:00:55.981Z,47.11
2024-05-09T08:03:23.264Z,45.02
2024-05-09T08:05:51.834Z,44.70
2024-05-09T08:08:18.534Z,42.83
2024-05-09T08:10:45.292Z,43.19
2024-05-09T08:13:12.031Z,44.13
2024-05-09T08:15:39.165Z,44.20
2024-05-09T08:18:32.340Z,46.89
2024-05-09T08:20:59.288Z,47.43
2024-05-09T08:23:26.178Z,44.48
2024-05-09T08:25:55.774Z,45.78
2024-05-09T08:28:22.450Z,43.94
2024-05-09T08:30:51.199Z,43.16
2024-05-09T08:33:18.158Z,47.24
2024-05-09T08:35:45.045Z,43.64
2024-05-09T08:38:20.911Z,42.85
2024-05-09T08:40:48.802Z,42.18
2024-05-09T08:43:17.406Z,43.13
2024-05-09T08:45:49.884Z,41.36
2024-05-09T08:48:19.756Z,41.50
2024-05-09T08:50:53.089Z,41.05
2024-05-09T08:53:19.892Z,41.20
2024-05-09T08:55:46.730Z,41.66
2024-05-09T08:58:20.478Z,42.43
2024-05-09T09:00:48.435Z,44.28
2024-05-09T09:03:18.552Z,42.82
2024-05-09T09:05:54.619Z,42.11
2024-05-09T09:08:21.324Z,43.34
2024-05-09T09:10:49.115Z,41.49
2024-05-09T09:13:28.089Z,43.07
2024-05-09T09:15:59.721Z,39.94
2024-05-09T09:18:35.883Z,39.07
2024-05-09T09:21:03.430Z,39.47
2024-05-09T09:23:30.652Z,39.03
2024-05-09T09:26:00.851Z,39.92
2024-05-09T09:28:27.607Z,41.46
2024-05-09T09:31:00.884Z,39.91
2024-05-09T09:33:31.334Z,39.30
2024-05-09T09:35:58.280Z,41.82
2024-05-09T09:38:26.528Z,41.12
2024-05-09T09:40:53.156Z,40.10
2024-05-09T09:43:21.678Z,40.39
2024-05-09T09:45:51.531Z,38.60
2024-05-09T09:48:21.378Z,41.95
2024-05-09T09:50:48.763Z,42.76
2024-05-09T09:53:16.136Z,39.92
2024-05-09T09:55:43.465Z,39.79
2024-05-09T09:58:13.450Z,36.84
2024-05-09T10:00:41.839Z,39.82
2024-05-09T10:03:08.685Z,39.84
2024-05-09T10:05:36.310Z,39.61
2024-05-09T10:08:08.032Z,39.15
2024-05-09T10:10:36.075Z,37.22
2024-05-09T10:13:04.552Z,39.40
2024-05-09T10:15:52.632Z,39.08
2024-05-09T10:18:28.113Z,38.24
2024-05-09T10:20:57.047Z,39.13
2024-05-09T10:23:24.782Z,40.42
2024-05-09T10:26:01.847Z,38.59
2024-05-09T10:28:30.170Z,39.32
2024-05-09T10:31:12.983Z,38.51
2024-05-09T10:33:49.582Z,39.07
2024-05-09T10:36:24.388Z,40.83
2024-05-09T10:38:54.435Z,37.10
2024-05-09T10:41:22.636Z,39.75
2024-05-09T10:43:50.149Z,35.49
2024-05-09T10:46:19.042Z,35.22
2024-05-09T10:48:47.624Z,33.13
2024-05-09T10:51:14.654Z,34.88
2024-05-09T10:53:42.756Z,37.86
2024-05-09T10:56:10.004Z,35.06
2024-05-09T10:58:37.079Z,34.00
2024-05-09T11:01:07.002Z,33.61
2024-05-09T11:03:35.510Z,36.47
2024-05-09T11:06:02.872Z,37.53
2024-05-09T11:08:31.842Z,36.46
2024-05-09T11:11:02.279Z,34.89
2024-05-09T11:13:33.971Z,37.37
2024-05-09T11:16:01.610Z,36.77
2024-05-09T11:18:33.819Z,33.36
2024-05-09T11:21:03.545Z,37.65
2024-05-09T11:23:30.786Z,37.09
2024-05-09T11:25:58.631Z,35.07
2024-05-09T11:28:28.295Z,33.87
2024-05-09T11:31:06.455Z,34.07
2024-05-09T11:34:02.216Z,38.78
2024-05-09T11:36:28.856Z,35.18
2024-05-09T11:38:55.499Z,36.20
2024-05-09T11:41:22.142Z,33.38
2024-05-09T11:43:48.759Z,36.07
2024-05-09T11:46:15.507Z,33.33
2024-05-09T11:48:42.660Z,37.56
2024-05-09T11:51:09.331Z,37.79
2024-05-09T11:53:36.723Z,37.60
2024-05-09T11:56:06.038Z,37.93
2024-05-09T11:58:34.751Z,34.99
2024-05-09T12:01:02.249Z,35.31
2024-05-09T12:03:29.339Z,35.25
2024-05-09T12:05:56.369Z,38.44
2024-05-09T12:08:23.232Z,36.09
2024-05-09T12:10:50.004Z,36.53
2024-05-09T12:17:50.692Z,35.33
2024-05-09T12:21:59.904Z,37.17
2024-05-09T12:24:24.809Z,38.25
2024-05-09T12:34:01.192Z,36.26
2024-05-09T12:36:28.660Z,37.10
2024-05-09T12:38:55.505Z,35.91
2024-05-09T12:41:24.553Z,35.36
2024-05-09T12:43:51.150Z,33.97
2024-05-09T12:46:20.499Z,37.69
2024-05-09T12:48:47.381Z,36.73
2024-05-09T12:51:14.093Z,35.06
2024-05-09T12:53:40.649Z,32.89
2024-05-09T12:56:09.387Z,35.58
2024-05-09T12:58:36.633Z,33.32
2024-05-09T13:01:03.489Z,33.43
2024-05-09T13:03:30.313Z,33.52
2024-05-09T13:05:57.347Z,35.48
2024-05-09T13:08:24.230Z,35.14
2024-05-09T13:10:51.281Z,32.98
2024-05-09T13:13:18.109Z,33.44
2024-05-09T13:15:44.982Z,34.54
2024-05-09T13:18:11.837Z,33.95
2024-05-09T13:20:38.486Z,37.16
2024-05-09T13:23:06.734Z,36.46
2024-05-09T13:25:35.115Z,34.18
2024-05-09T13:28:02.470Z,34.00
2024-05-09T13:30:38.095Z,33.05
2024-05-09T13:33:08.758Z,34.31
2024-05-09T13:35:36.216Z,35.24
2024-05-09T13:38:03.979Z,31.94
2024-05-09T13:40:40.237Z,33.42
2024-05-09T13:43:07.125Z,38.29
2024-05-09T13:45:39.718Z,33.16
2024-05-09T13:48:07.191Z,36.23
2024-05-09T13:50:36.281Z,38.03
2024-05-09T13:53:11.070Z,33.86
2024-05-09T13:55:38.808Z,33.10
2024-05-09T13:58:06.483Z,32.74
2024-05-09T14:00:43.894Z,35.13
2024-05-09T14:03:16.509Z,35.73
2024-05-09T14:05:44.516Z,35.10
2024-05-09T14:08:11.966Z,34.50
2024-05-09T14:10:44.543Z,32.91
2024-05-09T14:13:11.884Z,36.16
2024-05-09T14:15:38.653Z,33.38
2024-05-09T14:18:13.113Z,33.97
2024-05-09T14:20:43.732Z,35.17
2024-05-09T14:26:10.581Z,33.02
2024-05-09T14:29:27.003Z,35.13
2024-05-09T14:31:53.809Z,33.53
2024-05-09T14:34:20.823Z,33.44
2024-05-09T14:36:47.611Z,31.65
2024-05-09T14:39:14.276Z,31.35
2024-05-09T14:41:41.066Z,35.52
2024-05-09T14:45:02.513Z,33.67
2024-05-09T14:47:59.595Z,36.63
2024-05-09T14:50:34.700Z,33.57
2024-05-09T14:53:07.817Z,31.88
2024-05-09T14:55:37.455Z,32.64
2024-05-09T14:58:11.964Z,31.54
2024-05-09T15:00:45.939Z,34.76
2024-05-09T15:03:16.953Z,32.81
2024-05-09T15:05:44.156Z,34.79
2024-05-09T15:08:10.986Z,33.17
2024-05-09T15:10:41.449Z,33.51
2024-05-09T15:13:09.842Z,32.96
2024-05-09T15:15:38.183Z,33.20
2024-05-09T15:18:06.194Z,34.22
2024-05-09T15:20:36.194Z,33.90
2024-05-09T15:23:05.511Z,31.79
2024-05-09T15:25:33.775Z,37.15
2024-05-09T15:28:00.749Z,34.58
2024-05-09T15:30:31.815Z,30.72
2024-05-09T15:33:01.421Z,31.32
2024-05-09T15:35:28.283Z,31.35
2024-05-09T15:37:55.086Z,31.50
2024-05-09T15:40:31.036Z,33.35
2024-05-09T15:43:05.387Z,32.51
2024-05-09T15:45:32.382Z,31.54
2024-05-09T15:47:59.560Z,34.47
2024-05-09T15:50:36.196Z,33.47
2024-05-09T15:53:07.022Z,34.01
2024-05-09T15:55:34.848Z,34.34
2024-05-09T15:58:06.194Z,33.85
2024-05-09T16:00:38.562Z,33.11
2024-05-09T16:03:13.252Z,32.96
2024-05-09T16:05:41.491Z,35.63
2024-05-09T16:08:08.686Z,32.84
2024-05-09T16:10:37.645Z,34.82
2024-05-09T16:13:05.384Z,34.37
2024-05-09T16:15:32.301Z,33.01
2024-05-09T16:17:59.897Z,33.30
2024-05-09T16:20:34.968Z,33.91
2024-05-09T16:23:07.275Z,34.92
2024-05-09T16:25:34.064Z,35.05
2024-05-09T16:28:00.890Z,37.12
2024-05-09T16:30:34.093Z,39.56
2024-05-09T16:33:05.831Z,40.51
2024-05-09T16:35:33.021Z,39.18
2024-05-09T16:38:02.248Z,34.32
2024-05-09T16:40:36.481Z,34.17
2024-05-09T16:43:06.983Z,36.88
2024-05-09T16:45:34.083Z,33.47
2024-05-09T16:48:04.763Z,34.81
2024-05-09T16:50:34.275Z,35.22
2024-05-09T16:53:03.748Z,37.48
2024-05-09T16:55:30.728Z,36.71
2024-05-09T16:57:58.061Z,38.46
2024-05-09T17:00:38.124Z,37.21
2024-05-09T17:03:09.887Z,36.63
2024-05-09T17:05:38.538Z,37.59
2024-05-09T17:08:06.151Z,35.65
2024-05-09T17:10:34.914Z,37.17
2024-05-09T17:13:04.417Z,36.21
2024-05-09T17:15:32.661Z,36.43
2024-05-09T17:17:59.601Z,36.80
2024-05-09T17:20:32.633Z,35.21
2024-05-09T17:23:03.505Z,43.49
2024-05-09T17:25:33.649Z,43.52
2024-05-09T17:28:06.265Z,40.69
2024-05-09T17:30:36.677Z,41.19
2024-05-09T17:33:06.736Z,46.45
2024-05-09T17:35:33.768Z,46.31
2024-05-09T17:38:01.698Z,47.55
2024-05-09T17:40:33.563Z,50.04
2024-05-09T17:43:03.509Z,46.88
2024-05-09T17:45:30.620Z,49.10
2024-05-09T17:47:57.814Z,49.88
2024-05-09T17:50:31.706Z,49.93
2024-05-09T17:53:02.585Z,47.90
2024-05-09T17:55:29.357Z,50.30
2024-05-09T17:57:56.951Z,52.15
2024-05-09T18:00:34.298Z,50.76
2024-05-09T18:03:06.484Z,52.35
2024-05-09T18:05:38.072Z,51.56
2024-05-09T18:08:08.445Z,51.79
2024-05-09T18:10:40.496Z,51.60
2024-05-09T18:13:16.417Z,51.55
2024-05-09T18:15:43.680Z,53.58
2024-05-09T18:18:11.562Z,53.46
2024-05-09T18:20:43.848Z,52.75
2024-05-09T18:23:17.831Z,53.99
2024-05-09T18:25:46.416Z,53.87
2024-05-09T18:28:13.754Z,53.49
2024-05-09T18:30:41.552Z,53.71
2024-05-09T18:33:13.102Z,54.68
2024-05-09T18:35:44.115Z,55.13
2024-05-09T18:38:10.893Z,53.57
2024-05-09T18:40:38.812Z,54.84
2024-05-09T18:43:08.583Z,55.44
2024-05-09T18:45:41.276Z,56.07
2024-05-09T18:48:09.853Z,55.01
2024-05-09T18:50:40.585Z,54.16
2024-05-09T18:53:12.816Z,54.53
2024-05-09T18:55:41.166Z,54.18
2024-05-09T18:58:08.445Z,54.17
2024-05-09T19:00:38.527Z,53.99
2024-05-09T19:03:13.284Z,54.36
2024-05-09T19:05:45.502Z,55.02
2024-05-09T19:08:16.309Z,55.63
2024-05-09T19:10:46.717Z,56.03
2024-05-09T19:13:18.490Z,55.58
2024-05-09T19:15:47.478Z,55.81
2024-05-09T19:18:17.396Z,56.09
2024-05-09T19:20:58.896Z,57.68
2024-05-09T19:23:32.543Z,59.18
2024-05-09T19:25:59.670Z,59.83
2024-05-09T19:28:30.583Z,58.46
2024-05-09T19:31:05.224Z,57.44
2024-05-09T19:33:33.593Z,58.98
2024-05-09T19:36:01.945Z,59.18
2024-05-09T19:38:31.431Z,59.15
2024-05-09T19:41:15.894Z,59.99
2024-05-09T19:43:45.785Z,59.87
2024-05-09T19:46:14.131Z,59.94
2024-05-09T19:48:45.664Z,60.87
2024-05-09T19:51:14.127Z,62.08
2024-05-09T19:53:45.564Z,61.22
2024-05-09T19:56:12.626Z,60.89
2024-05-09T19:58:42.434Z,60.41
2024-05-09T20:01:12.732Z,61.12
2024-05-09T20:03:42.586Z,61.33
2024-05-09T20:06:14.553Z,59.81
2024-05-09T20:08:47.293Z,61.24
2024-05-09T20:11:20.764Z,62.46
2024-05-09T20:13:59.144Z,62.40
2024-05-09T20:16:29.192Z,61.89
2024-05-09T20:18:56.480Z,62.76
2024-05-09T20:21:24.210Z,63.64
2024-05-09T20:23:51.206Z,64.09
2024-05-09T20:26:30.936Z,63.25
2024-05-09T20:31:45.170Z,65.30
2024-05-09T20:34:29.815Z,64.08
2024-05-09T20:37:01.057Z,64.84
2024-05-09T20:39:35.309Z,64.22
2024-05-09T20:42:26.736Z,62.69
2024-05-09T20:45:20.251Z,64.43
2024-05-09T20:47:45.473Z,64.68
2024-05-09T20:50:29.313Z,65.84
2024-05-09T20:53:06.122Z,66.58
2024-05-09T20:58:40.191Z,66.66
2024-05-09T21:01:08.607Z,66.51
2024-05-09T21:03:38.099Z,65.61
2024-05-09T21:06:06.486Z,66.02
2024-05-09T21:08:33.373Z,66.66
2024-05-09T21:11:00.367Z,66.48
2024-05-09T21:13:27.329Z,67.64
2024-05-09T21:15:54.117Z,67.12
2024-05-09T21:18:20.802Z,65.89
2024-05-09T21:20:47.511Z,67.44
2024-05-09T21:23:14.108Z,68.05
2024-05-09T21:25:40.702Z,67.72
2024-05-09T21:28:07.533Z,67.31
2024-05-09T21:30:41.271Z,67.57
2024-05-09T21:33:11.182Z,69.15
2024-05-09T21:35:39.576Z,69.04
2024-05-09T21:38:07.244Z,69.66
2024-05-09T21:40:36.028Z,68.87
2024-05-09T21:43:07.749Z,68.32
2024-05-09T21:45:35.661Z,68.25
2024-05-09T21:48:03.730Z,67.67
2024-05-09T21:50:37.036Z,66.24
2024-05-09T21:53:07.588Z,68.34
2024-05-09T21:55:34.424Z,67.08
2024-05-09T21:58:01.296Z,67.11
2024-05-09T22:00:35.513Z,66.73
2024-05-09T22:03:06.199Z,67.90
2024-05-09T22:05:33.443Z,68.47
2024-05-09T22:08:00.566Z,67.08
2024-05-09T22:10:33.354Z,65.92
2024-05-09T22:13:02.406Z,67.33
2024-05-09T22:15:29.206Z,66.88
2024-05-09T22:17:57.160Z,65.48
2024-05-09T22:20:33.101Z,67.03
2024-05-09T22:23:04.369Z,68.71
2024-05-09T22:25:32.179Z,68.25
2024-05-09T22:28:02.959Z,67.00
2024-05-09T22:32:59.496Z,67.01
2024-05-09T22:35:26.023Z,69.06
2024-05-09T22:37:52.571Z,69.82
2024-05-09T22:40:28.361Z,71.17
2024-05-09T22:43:04.809Z,69.84
2024-05-09T22:45:31.476Z,68.37
2024-05-09T22:47:58.284Z,66.86
2024-05-09T22:50:27.068Z,67.57
2024-05-09T22:52:58.944Z,67.66
2024-05-09T22:55:25.532Z,67.42
2024-05-09T22:57:52.294Z,67.26
2024-05-09T23:00:22.043Z,67.52
2024-05-09T23:02:55.302Z,68.05
2024-05-09T23:05:22.116Z,68.28
2024-05-09T23:07:48.794Z,67.28
2024-05-09T23:10:25.183Z,66.86
2024-05-09T23:12:58.688Z,66.91
2024-05-09T23:15:25.419Z,66.93
2024-05-09T23:17:52.220Z,67.92
2024-05-09T23:20:29.666Z,67.63
2024-05-09T23:23:03.240Z,67.81
2024-05-09T23:25:29.838Z,67.38
2024-05-09T23:27:56.665Z,67.64
2024-05-09T23:30:33.152Z,69.75
2024-05-09T23:33:05.229Z,71.34
2024-05-09T23:35:32.000Z,72.86
2024-05-09T23:37:58.575Z,72.25
2024-05-09T23:40:37.054Z,71.97
2024-05-09T23:43:07.218Z,70.85
2024-05-09T23:45:34.314Z,70.17
2024-05-09T23:48:01.571Z,69.67
2024-05-09T23:50:34.574Z,69.89
2024-05-09T23:53:05.120Z,70.96
2024-05-09T23:55:32.210Z,72.17
2024-05-09T23:57:59.351Z,72.75
